Terminal Aerodrome Forecast
Issued by NWS

Current Version | Previous Version | Text Only | Print | Product List | Glossary On
Versions: 1 2 3 4 5 6 7 8 9 10 11 12 13 14 15 16 17 18 19
000
FTUS43 KICT 051720
TAFSLN
TAF
KSLN 051720Z 0518/0618 15016G23KT P6SM SCT040 BKN100
     FM060000 14015KT P6SM VCSH SCT040 BKN070
     FM060300 15015KT 6SM -SHRA VCTS OVC035CB
      TEMPO 0603/0607 3SM SHRA OVC020
     FM060800 15015KT 5SM -SHRA VCTS OVC015CB
     FM061500 16018G24KT P6SM OVC009=

USA.gov is the U.S. government's official web portal to all federal, state and local government web resources and services.